createdAt,value
2022-10-01T00:01:42.467Z,101014.78
2022-10-01T00:05:06.439Z,101011.50
2022-10-01T00:08:30.425Z,101005.56
2022-10-01T00:11:54.398Z,100981.72
2022-10-01T00:15:18.428Z,100965.16
2022-10-01T00:18:42.396Z,100957.34
2022-10-01T00:22:07.415Z,100949.16
2022-10-01T00:25:30.480Z,100948.88
2022-10-01T00:28:54.462Z,100948.63
2022-10-01T00:32:18.525Z,100951.31
2022-10-01T00:35:42.415Z,100943.47
2022-10-01T00:39:10.420Z,100928.78
2022-10-01T00:42:38.464Z,100926.38
2022-10-01T00:46:03.470Z,100931.81
2022-10-01T00:49:32.467Z,100922.84
2022-10-01T00:52:51.031Z,100923.13
2022-10-01T00:56:08.533Z,100913.06
2022-10-01T00:59:32.428Z,100899.19
2022-10-01T01:02:56.546Z,100901.34
2022-10-01T01:06:21.424Z,100905.69
2022-10-01T01:09:48.556Z,100898.38
2022-10-01T01:13:26.503Z,100898.91
2022-10-01T01:17:03.468Z,100883.72
2022-10-01T01:20:42.470Z,100883.16
2022-10-01T01:24:29.473Z,100860.91
2022-10-01T01:28:13.605Z,100844.84
2022-10-01T01:31:42.463Z,100848.38
2022-10-01T01:35:10.562Z,100842.13
2022-10-01T01:38:42.506Z,100833.47
2022-10-01T01:42:11.446Z,100817.09
2022-10-01T01:45:39.540Z,100807.06
2022-10-01T01:49:05.477Z,100794.84
2022-10-01T01:52:30.465Z,100800.03
2022-10-01T01:55:50.789Z,100784.56
2022-10-01T01:59:16.510Z,100780.28
2022-10-01T02:02:47.565Z,100776.72
2022-10-01T02:06:14.551Z,100771.56
2022-10-01T02:10:03.444Z,100757.44
2022-10-01T02:13:39.533Z,100744.97
2022-10-01T02:17:24.547Z,100736.28
2022-10-01T02:21:02.559Z,100730.28
2022-10-01T02:25:08.452Z,100713.75
2022-10-01T02:28:37.532Z,100705.88
2022-10-01T02:32:03.589Z,100707.50
2022-10-01T02:35:31.482Z,100698.03
2022-10-01T02:38:58.580Z,100695.00
2022-10-01T02:42:25.584Z,100718.91
2022-10-01T02:45:51.590Z,100687.38
2022-10-01T02:49:29.785Z,100683.56
2022-10-01T02:53:23.580Z,100667.84
2022-10-01T02:56:57.818Z,100661.03
2022-10-01T03:00:24.562Z,100658.28
2022-10-01T03:03:49.472Z,100641.69
2022-10-01T03:07:12.576Z,100622.97
2022-10-01T03:10:36.489Z,100617.28
2022-10-01T03:14:01.606Z,100620.03
2022-10-01T03:17:26.561Z,100606.44
2022-10-01T03:20:49.563Z,100600.53
2022-10-01T03:24:13.565Z,100593.16
2022-10-01T03:27:37.561Z,100591.31
2022-10-01T03:31:01.516Z,100590.25
2022-10-01T03:34:25.522Z,100599.47
2022-10-01T03:37:50.531Z,100590.81
2022-10-01T03:41:14.535Z,100581.84
2022-10-01T03:44:38.563Z,100571.28
2022-10-01T03:48:08.524Z,100574.53
2022-10-01T03:51:32.748Z,100557.97
2022-10-01T03:54:57.490Z,100568.53
2022-10-01T03:58:21.565Z,100549.56
2022-10-01T04:01:45.626Z,100552.00
2022-10-01T04:05:09.575Z,100554.16
2022-10-01T04:08:34.520Z,100548.47
2022-10-01T04:11:58.562Z,100546.31
2022-10-01T04:15:22.608Z,100563.94
2022-10-01T04:18:46.562Z,100562.00
2022-10-01T04:22:10.521Z,100569.13
2022-10-01T04:25:35.525Z,100563.16
2022-10-01T04:28:59.537Z,100546.34
2022-10-01T04:32:28.541Z,100535.22
2022-10-01T04:35:52.515Z,100549.88
2022-10-01T04:39:16.545Z,100547.97
2022-10-01T04:42:40.516Z,100521.13
2022-10-01T04:46:04.510Z,100515.72
2022-10-01T04:49:29.514Z,100523.28
2022-10-01T04:52:53.520Z,100519.22
2022-10-01T04:56:17.551Z,100514.88
2022-10-01T04:59:42.510Z,100502.41
2022-10-01T05:03:06.524Z,100496.41
2022-10-01T05:06:30.562Z,100490.47
2022-10-01T05:09:53.568Z,100490.47
2022-10-01T05:13:18.513Z,100477.72
2022-10-01T05:16:42.621Z,100472.00
2022-10-01T05:20:06.547Z,100473.09
2022-10-01T05:23:30.558Z,100465.00
2022-10-01T05:26:54.548Z,100464.13
2022-10-01T05:30:20.545Z,100459.28
2022-10-01T05:33:48.530Z,100463.94
2022-10-01T05:37:12.510Z,100450.88
2022-10-01T05:40:37.517Z,100445.47
2022-10-01T05:44:03.530Z,100445.72
2022-10-01T05:47:30.498Z,100433.00
2022-10-01T05:50:57.576Z,100444.91
2022-10-01T05:54:21.537Z,100421.03
2022-10-01T05:57:45.582Z,100433.25
2022-10-01T06:01:11.546Z,100436.50
2022-10-01T06:04:40.341Z,100438.41
2022-10-01T06:08:05.515Z,100442.72
2022-10-01T06:11:32.825Z,100445.47
2022-10-01T06:14:57.651Z,100439.22
2022-10-01T06:18:23.549Z,100443.03
2022-10-01T06:21:47.549Z,100444.91
2022-10-01T06:25:11.513Z,100437.06
2022-10-01T06:28:35.551Z,100434.34
2022-10-01T06:31:59.567Z,100443.25
2022-10-01T06:35:24.612Z,100435.69
2022-10-01T06:38:48.553Z,100435.97
2022-10-01T06:42:12.552Z,100441.66
2022-10-01T06:45:37.564Z,100448.94
2022-10-01T06:49:01.610Z,100450.28
2022-10-01T06:52:43.550Z,100455.97
2022-10-01T06:56:07.561Z,100457.34
2022-10-01T06:59:31.520Z,100452.75
2022-10-01T07:02:55.605Z,100446.50
2022-10-01T07:06:20.561Z,100450.56
2022-10-01T07:09:44.561Z,100455.72
2022-10-01T07:13:08.630Z,100461.16
2022-10-01T07:16:33.595Z,100460.06
2022-10-01T07:19:57.570Z,100451.41
2022-10-01T07:23:25.621Z,100450.28
2022-10-01T07:26:49.542Z,100448.38
2022-10-01T07:30:13.617Z,100452.16
2022-10-01T07:33:37.554Z,100454.03
2022-10-01T07:37:02.606Z,100451.53
2022-10-01T07:40:26.547Z,100443.41
2022-10-01T07:43:51.563Z,100458.28
2022-10-01T07:47:15.604Z,100447.97
2022-10-01T07:50:39.731Z,100448.53
2022-10-01T07:54:03.550Z,100450.41
2022-10-01T07:57:27.608Z,100449.91
2022-10-01T08:00:51.656Z,100459.41
2022-10-01T08:04:09.621Z,100472.47
2022-10-01T08:07:33.599Z,100460.50
2022-10-01T08:10:58.617Z,100458.03
2022-10-01T08:14:22.556Z,100458.81
2022-10-01T08:17:46.578Z,100461.00
2022-10-01T08:21:10.633Z,100454.47
2022-10-01T08:24:34.585Z,100466.94
2022-10-01T08:27:58.613Z,100462.06
2022-10-01T08:31:22.666Z,100459.06
2022-10-01T08:34:47.593Z,100453.94
2022-10-01T08:38:18.612Z,100456.59
2022-10-01T08:42:03.639Z,100455.22
2022-10-01T08:45:42.647Z,100452.50
2022-10-01T08:49:43.639Z,100441.13
2022-10-01T08:53:16.597Z,100441.97
2022-10-01T08:56:46.601Z,100450.66
2022-10-01T09:00:16.587Z,100447.94
2022-10-01T09:03:44.666Z,100443.59
2022-10-01T09:07:12.173Z,100430.50
2022-10-01T09:11:14.656Z,100426.78
2022-10-01T09:14:50.648Z,100420.22
2022-10-01T09:18:26.662Z,100417.81
2022-10-01T09:21:59.619Z,100425.06
2022-10-01T09:25:32.818Z,100412.09
2022-10-01T09:28:56.585Z,100410.69
2022-10-01T09:32:20.659Z,100406.44
2022-10-01T09:36:04.633Z,100394.22
2022-10-01T09:39:39.666Z,100397.47
2022-10-01T09:43:03.662Z,100397.81
2022-10-01T09:46:30.680Z,100394.25
2022-10-01T09:49:54.596Z,100384.19
2022-10-01T09:53:18.663Z,100372.56
2022-10-01T09:56:51.598Z,100371.00
2022-10-01T10:00:44.615Z,100366.41
2022-10-01T10:04:05.238Z,100362.34
2022-10-01T10:07:26.678Z,100359.91
2022-10-01T10:10:50.782Z,100377.03
2022-10-01T10:14:16.647Z,100370.53
2022-10-01T10:17:42.679Z,100344.47
2022-10-01T10:21:11.689Z,100344.72
2022-10-01T10:24:47.635Z,100342.25
2022-10-01T10:28:12.697Z,100347.19
2022-10-01T10:31:41.777Z,100349.91
2022-10-01T10:35:06.624Z,100345.81
2022-10-01T10:38:33.680Z,100344.47
2022-10-01T10:41:59.626Z,100347.19
2022-10-01T10:45:37.644Z,100341.25
2022-10-01T10:49:01.632Z,100330.41
2022-10-01T10:52:46.814Z,100324.13
2022-10-01T10:56:11.633Z,100337.69
2022-10-01T10:59:35.645Z,100334.44
2022-10-01T11:03:11.630Z,100312.75
2022-10-01T11:06:35.912Z,100302.41
2022-10-01T11:10:18.696Z,100290.72
2022-10-01T11:13:45.617Z,100279.84
2022-10-01T11:17:15.662Z,100294.53
2022-10-01T11:20:48.644Z,100291.84
2022-10-01T11:24:33.698Z,100279.06
2022-10-01T11:28:12.766Z,100287.22
2022-10-01T11:32:11.682Z,100288.81
2022-10-01T11:35:57.666Z,100281.22
2022-10-01T11:39:28.621Z,100274.41
2022-10-01T11:42:52.676Z,100265.75
2022-10-01T11:46:22.694Z,100273.94
2022-10-01T11:50:08.720Z,100272.28
2022-10-01T11:53:45.650Z,100266.56
2022-10-01T11:57:28.739Z,100271.19
2022-10-01T12:00:53.690Z,100271.47
2022-10-01T12:04:40.692Z,100276.88
2022-10-01T12:08:00.248Z,100267.38
2022-10-01T12:11:50.692Z,100260.22
2022-10-01T12:15:38.658Z,100264.59
2022-10-01T12:19:33.740Z,100262.44
2022-10-01T12:22:57.670Z,100257.00
2022-10-01T12:26:39.804Z,100251.84
2022-10-01T12:30:27.660Z,100235.03
2022-10-01T12:34:23.701Z,100235.28
2022-10-01T12:37:53.664Z,100229.06
2022-10-01T12:41:29.742Z,100232.06
2022-10-01T12:45:20.688Z,100240.69
2022-10-01T12:49:08.738Z,100229.06
2022-10-01T12:52:50.719Z,100232.53
2022-10-01T12:56:23.713Z,100242.03
2022-10-01T12:59:53.712Z,100242.81
2022-10-01T13:03:35.670Z,100247.44
2022-10-01T13:07:24.754Z,100242.03
2022-10-01T13:11:08.183Z,100236.34
2022-10-01T13:14:26.760Z,100237.94
2022-10-01T13:17:57.748Z,100243.38
2022-10-01T13:21:40.728Z,100246.34
2022-10-01T13:25:36.732Z,100231.16
2022-10-01T13:29:26.680Z,100231.97
2022-10-01T13:33:14.725Z,100231.22
2022-10-01T13:36:45.679Z,100234.41
2022-10-01T13:40:09.757Z,100224.13
2022-10-01T13:43:36.755Z,100224.41
2022-10-01T13:47:17.819Z,100215.44
2022-10-01T13:50:41.734Z,100209.22
2022-10-01T13:54:10.733Z,100201.03
2022-10-01T13:57:53.781Z,100197.78
2022-10-01T14:01:30.767Z,100194.19
2022-10-01T14:04:55.799Z,100192.91
2022-10-01T14:08:41.773Z,100177.16
2022-10-01T14:12:41.385Z,100194.28
2022-10-01T14:16:10.824Z,100187.75
2022-10-01T14:19:35.706Z,100186.97
2022-10-01T14:23:27.769Z,100187.53
2022-10-01T14:26:57.737Z,100188.88
2022-10-01T14:30:31.715Z,100171.81
2022-10-01T14:34:10.745Z,100167.25
2022-10-01T14:37:35.713Z,100164.28
2022-10-01T14:41:02.861Z,100174.59
2022-10-01T14:44:54.765Z,100179.16
2022-10-01T14:48:14.793Z,100183.78
2022-10-01T14:51:43.721Z,100174.06
2022-10-01T14:55:26.795Z,100185.75
2022-10-01T14:58:56.812Z,100177.09
2022-10-01T15:02:36.812Z,100164.91
2022-10-01T15:06:02.730Z,100155.91
2022-10-01T15:09:29.806Z,100140.72
2022-10-01T15:12:55.802Z,100118.19
2022-10-01T15:16:20.825Z,100109.81
2022-10-01T15:19:44.787Z,100110.69
2022-10-01T15:23:08.811Z,100113.63
2022-10-01T15:26:42.775Z,100112.53
2022-10-01T15:30:10.851Z,100109.53
2022-10-01T15:33:41.875Z,100101.41
2022-10-01T15:37:07.784Z,100130.41
2022-10-01T15:40:45.892Z,100089.44
2022-10-01T15:44:09.783Z,100124.19
2022-10-01T15:48:05.848Z,100157.78
2022-10-01T15:51:34.820Z,100150.22
2022-10-01T15:54:58.797Z,100138.00
2022-10-01T15:58:42.817Z,100124.47
2022-10-01T16:02:06.827Z,100109.59
2022-10-01T16:05:34.792Z,100099.91
2022-10-01T16:09:19.757Z,100110.19
2022-10-01T16:12:44.780Z,100089.38
2022-10-01T16:16:29.918Z,100095.09
2022-10-01T16:19:53.829Z,100096.41
2022-10-01T16:23:51.832Z,100090.75
2022-10-01T16:27:16.856Z,100093.50
2022-10-01T16:30:41.865Z,100096.81
2022-10-01T16:34:04.851Z,100100.09
2022-10-01T16:37:28.848Z,100101.75
2022-10-01T16:40:57.780Z,100092.63
2022-10-01T16:44:21.842Z,100098.06
2022-10-01T16:47:45.863Z,100084.53
2022-10-01T16:51:09.774Z,100099.41
2022-10-01T16:54:42.839Z,100090.47
2022-10-01T16:58:09.788Z,100093.41
2022-10-01T17:01:32.884Z,100094.50
2022-10-01T17:04:56.818Z,100093.19
2022-10-01T17:08:20.867Z,100087.72
2022-10-01T17:11:46.833Z,100089.09
2022-10-01T17:15:10.859Z,100078.88
2022-10-01T17:18:28.421Z,100097.00
2022-10-01T17:21:45.855Z,100102.41
2022-10-01T17:25:09.845Z,100104.06
2022-10-01T17:28:34.871Z,100119.78
2022-10-01T17:32:00.909Z,100116.53
2022-10-01T17:35:29.875Z,100125.81
2022-10-01T17:38:54.837Z,100120.38
2022-10-01T17:42:20.903Z,100127.41
2022-10-01T17:45:45.911Z,100135.00
2022-10-01T17:49:09.859Z,100137.72
2022-10-01T17:52:33.867Z,100131.78
2022-10-01T17:55:58.832Z,100144.53
2022-10-01T17:59:22.847Z,100150.47
2022-10-01T18:02:46.894Z,100153.44
2022-10-01T18:06:19.882Z,100147.47
2022-10-01T18:09:43.815Z,100151.84
2022-10-01T18:13:06.862Z,100148.84
2022-10-01T18:16:30.868Z,100157.78
2022-10-01T18:19:54.866Z,100149.63
2022-10-01T18:23:18.873Z,100156.41
2022-10-01T18:26:42.899Z,100156.13
2022-10-01T18:30:06.840Z,100156.03
2022-10-01T18:33:30.984Z,100158.78
2022-10-01T18:37:02.870Z,100161.16
2022-10-01T18:40:28.857Z,100166.78
2022-10-01T18:43:54.841Z,100176.53
2022-10-01T18:47:59.899Z,100178.69
2022-10-01T18:51:32.856Z,100187.34
2022-10-01T18:55:20.985Z,100180.91
2022-10-01T18:59:03.832Z,100189.81
2022-10-01T19:02:45.837Z,100191.44
2022-10-01T19:06:40.835Z,100198.56
2022-10-01T19:10:23.837Z,100209.50
2022-10-01T19:14:05.812Z,100207.88
2022-10-01T19:17:34.371Z,100205.41
2022-10-01T19:21:17.826Z,100197.47
2022-10-01T19:25:15.827Z,100209.81
2022-10-01T19:29:00.735Z,100207.84
2022-10-01T19:32:38.829Z,100199.09
2022-10-01T19:36:06.813Z,100202.31
2022-10-01T19:39:41.810Z,100198.25
2022-10-01T19:43:14.817Z,100193.19
2022-10-01T19:46:59.857Z,100196.19
2022-10-01T19:50:52.803Z,100192.78
2022-10-01T19:54:17.863Z,100192.84
2022-10-01T19:57:46.815Z,100189.38
2022-10-01T20:01:11.880Z,100193.06
2022-10-01T20:04:41.856Z,100194.31
2022-10-01T20:08:14.803Z,100187.47
2022-10-01T20:11:53.882Z,100193.78
2022-10-01T20:15:22.830Z,100191.56
2022-10-01T20:19:07.839Z,100196.44
2022-10-01T20:22:55.828Z,100181.09
2022-10-01T20:26:52.893Z,100189.16
2022-10-01T20:30:23.820Z,100190.75
2022-10-01T20:33:51.844Z,100188.69
2022-10-01T20:37:44.870Z,100180.81
2022-10-01T20:41:14.830Z,100188.22
2022-10-01T20:44:46.914Z,100187.53
2022-10-01T20:48:36.862Z,100185.53
2022-10-01T20:52:07.888Z,100185.50
2022-10-01T20:55:36.793Z,100186.63
2022-10-01T20:59:10.809Z,100201.81
2022-10-01T21:02:56.823Z,100191.66
2022-10-01T21:06:37.182Z,100188.16
2022-10-01T21:10:04.862Z,100201.09
2022-10-01T21:13:47.901Z,100205.50
2022-10-01T21:17:39.878Z,100208.41
2022-10-01T21:21:11.930Z,100204.22
2022-10-01T21:25:08.765Z,100189.72
2022-10-01T21:28:52.854Z,100196.81
2022-10-01T21:32:48.833Z,100192.44
2022-10-01T21:36:17.909Z,100192.06
2022-10-01T21:40:13.869Z,100204.13
2022-10-01T21:44:11.100Z,100202.19
2022-10-01T21:48:08.557Z,100203.56
2022-10-01T21:51:58.881Z,100211.09
2022-10-01T21:55:38.850Z,100201.59
2022-10-01T21:59:22.898Z,100198.50
2022-10-01T22:03:15.046Z,100191.59
2022-10-01T22:07:13.881Z,100180.22
2022-10-01T22:11:02.872Z,100181.66
2022-10-01T22:14:33.892Z,100175.94
2022-10-01T22:17:57.861Z,100168.56
2022-10-01T22:21:23.928Z,100163.34
2022-10-01T22:25:01.875Z,100162.38
2022-10-01T22:28:32.907Z,100158.81
2022-10-01T22:31:57.955Z,100148.22
2022-10-01T22:35:35.898Z,100147.66
2022-10-01T22:39:10.858Z,100146.09
2022-10-01T22:42:43.910Z,100146.47
2022-10-01T22:46:34.130Z,100150.19
2022-10-01T22:50:09.856Z,100132.31
2022-10-01T22:53:56.920Z,100129.34
2022-10-01T22:57:46.913Z,100119.25
2022-10-01T23:01:34.913Z,100126.38
2022-10-01T23:05:36.941Z,100115.38
2022-10-01T23:09:09.995Z,100113.16
2022-10-01T23:12:51.949Z,100107.25
2022-10-01T23:16:21.924Z,100094.84
2022-10-01T23:20:10.995Z,100107.31
2022-10-01T23:23:47.954Z,100093.44
2022-10-01T23:27:43.947Z,100084.69
2022-10-01T23:31:35.013Z,100080.91
2022-10-01T23:35:27.932Z,100069.38
2022-10-01T23:39:27.954Z,100074.19
2022-10-01T23:43:29.887Z,100076.97
2022-10-01T23:46:54.942Z,100087.69
2022-10-01T23:50:20.969Z,100076.91
2022-10-01T23:54:17.945Z,100066.59
2022-10-01T23:57:45.975Z,100061.53
